EDDT/TXL METAR and TAF weather

Enter ICAO airport designator
Station Type Date Time Source
EDDT METAR 2019/02/23 16:50 UTC NOAA

EDDT 231650Z 16006KT CAVOK 04/M11 Q1042 NOSIG


Station Type Date Time Source
EDDT Decoded METAR 2019/02/23 16:50 UTC NOAA

Berlin-Tegel, Germany (EDDT) 52-34N 013-19E 37M
Feb 23, 2019 - 11:50 AM EST / 2019.02.23 1650 UTC
Wind: from the SSE (160 degrees) at 7 MPH (6 KT):0
Visibility: greater than 7 mile(s):0
Temperature: 39 F (4 C)
Dew Point: 12 F (-11 C)
Relative Humidity: 32%
Pressure (altimeter): 30.77 in. Hg (1042 hPa)
ob: EDDT 231650Z 16006KT CAVOK 04/M11 Q1042 NOSIG
cycle: 17

Station Type Date Time Source
EDDT TAF 2019/02/23 12:27 UTC NOAA

TAF EDDT 231100Z 2312/2412 15006KT CAVOK
BECMG 2320/2322 VRB02KT


Example: see airport list